Time;durP1;ratioP1;P1;durP2;ratioP2;P2;SDS_P1;SDS_P2;PMS_P1;PMS_P2;Temp;Humidity;BMP_temperature;BMP_pressure;BME280_temperature;BME280_humidity;BME280_pressure;Samples;Min_cycle;Max_cycle;Signal;HPM_P1;HPM_P2
2022/10/15 06:41:23;;;;;;;28.10;15.07;;;;;;;;;;5024793;27;1073516;-63
2022/10/15 06:43:49;;;;;;;25.70;13.75;;;;;;;;;;5074524;27;88923;-63
2022/10/15 06:46:16;;;;;;;21.30;13.13;;;;;;;;;;5086230;27;89678;-64
2022/10/15 06:48:42;;;;;;;20.17;11.73;;;;;;;;;;5085449;27;89016;-64
2022/10/15 06:51:08;;;;;;;19.88;12.05;;;;;;;;;;5095578;27;91213;-65
2022/10/15 06:53:34;;;;;;;22.88;11.75;;;;;;;;;;5069176;27;89276;-64
2022/10/15 06:56:02;;;;;;;18.67;10.55;;;;;;;;;;5093848;27;89042;-65
2022/10/15 06:58:28;;;;;;;22.05;10.70;;;;;;;;;;5093349;27;90273;-67
2022/10/15 07:01:01;;;;;;;20.58;10.93;;;;;;;;;;5090210;27;89211;-67
2022/10/15 07:03:28;;;;;;;20.67;11.85;;;;;;;;;;5085829;27;90374;-66
2022/10/15 07:05:54;;;;;;;27.05;11.02;;;;;;;;;;5073540;27;89683;-67
2022/10/15 07:08:21;;;;;;;16.98;10.48;;;;;;;;;;5070455;27;89041;-65
2022/10/15 07:10:47;;;;;;;14.93;9.15;;;;;;;;;;5053512;27;90077;-65
2022/10/15 07:13:13;;;;;;;15.27;8.43;;;;;;;;;;5067212;27;87449;-65
2022/10/15 07:15:40;;;;;;;16.48;9.32;;;;;;;;;;5050169;27;87509;-65
2022/10/15 07:18:06;;;;;;;13.30;8.77;;;;;;;;;;5056282;27;87879;-64
2022/10/15 07:20:32;;;;;;;15.07;8.60;;;;;;;;;;5054846;27;87721;-65
2022/10/15 07:22:59;;;;;;;10.63;8.15;;;;;;;;;;5057471;27;87509;-67
2022/10/15 07:25:26;;;;;;;15.35;9.20;;;;;;;;;;5054872;27;87566;-67
2022/10/15 07:27:54;;;;;;;13.43;8.77;;;;;;;;;;5055673;27;88978;-67
2022/10/15 07:30:21;;;;;;;15.13;9.43;;;;;;;;;;5054183;27;87851;-67
2022/10/15 07:32:47;;;;;;;12.50;8.48;;;;;;;;;;5059645;27;87330;-67
2022/10/15 07:35:15;;;;;;;17.60;9.60;;;;;;;;;;5042006;27;88555;-67
2022/10/15 07:37:42;;;;;;;13.73;9.95;;;;;;;;;;5037237;27;86929;-67
2022/10/15 07:40:08;;;;;;;13.30;9.15;;;;;;;;;;5058124;27;87659;-67
2022/10/15 07:42:34;;;;;;;13.18;8.38;;;;;;;;;;5056546;27;87525;-66
2022/10/15 07:45:01;;;;;;;14.68;10.30;;;;;;;;;;5072088;27;87840;-67
2022/10/15 07:47:27;;;;;;;11.57;9.35;;;;;;;;;;5061135;27;89047;-66
2022/10/15 07:49:53;;;;;;;13.10;10.00;;;;;;;;;;5055633;27;90229;-67
2022/10/15 07:52:20;;;;;;;13.23;9.18;;;;;;;;;;5044961;27;90957;-67
2022/10/15 07:54:46;;;;;;;14.57;8.75;;;;;;;;;;5040209;27;87804;-66
2022/10/15 07:57:13;;;;;;;12.02;8.15;;;;;;;;;;5040019;27;89420;-66
2022/10/15 07:59:39;;;;;;;15.23;7.35;;;;;;;;;;5053370;27;87371;-66
2022/10/15 08:02:05;;;;;;;13.88;7.78;;;;;;;;;;5051668;27;88514;-66
2022/10/15 08:04:33;;;;;;;10.07;7.05;;;;;;;;;;5047681;27;88144;-67
2022/10/15 08:07:00;;;;;;;14.52;7.25;;;;;;;;;;5052739;27;87307;-67
2022/10/15 08:09:27;;;;;;;10.52;6.45;;;;;;;;;;5042912;27;88081;-67
2022/10/15 08:11:53;;;;;;;10.35;6.90;;;;;;;;;;5060998;27;87660;-67
2022/10/15 08:14:19;;;;;;;9.68;7.38;;;;;;;;;;5060905;27;87665;-67
2022/10/15 08:16:45;;;;;;;10.07;7.63;;;;;;;;;;5028258;28;88527;-67
2022/10/15 08:19:16;;;;;;;10.52;6.78;;;;;;;;;;5040727;28;87656;-67
2022/10/15 08:21:43;;;;;;;9.27;7.18;;;;;;;;;;5022563;28;87437;-67
2022/10/15 08:24:12;;;;;;;12.65;7.38;;;;;;;;;;5040773;28;88092;-67
2022/10/15 08:26:39;;;;;;;10.80;7.38;;;;;;;;;;5040366;28;86667;-67
2022/10/15 08:29:05;;;;;;;10.90;7.07;;;;;;;;;;5025238;28;87751;-67
2022/10/15 08:31:31;;;;;;;12.77;7.32;;;;;;;;;;5040402;28;87530;-66
2022/10/15 08:33:58;;;;;;;11.95;7.10;;;;;;;;;;5041000;28;88513;-67
2022/10/15 08:36:25;;;;;;;10.70;7.32;;;;;;;;;;5039955;28;87930;-67
2022/10/15 08:38:51;;;;;;;11.32;8.07;;;;;;;;;;5040140;28;87364;-67
2022/10/15 08:41:17;;;;;;;11.10;7.10;;;;;;;;;;5039740;28;87509;-67
2022/10/15 08:43:45;;;;;;;10.32;6.88;;;;;;;;;;5040440;28;88035;-66
2022/10/15 08:46:15;;;;;;;9.23;6.60;;;;;;;;;;5040711;27;88309;-67
2022/10/15 08:48:48;;;;;;;10.32;7.72;;;;;;;;;;5040344;28;87190;-67
2022/10/15 08:51:26;;;;;;;8.45;7.07;;;;;;;;;;5042667;28;87029;-67
2022/10/15 08:53:55;;;;;;;7.30;6.47;;;;;;;;;;5040163;28;87568;-67
2022/10/15 08:56:35;;;;;;;10.43;6.88;;;;;;;;;;5039793;28;88008;-67
2022/10/15 08:59:31;;;;;;;8.10;6.40;;;;;;;;;;5040102;28;87272;-67
2022/10/15 09:02:01;;;;;;;8.95;6.85;;;;;;;;;;5026841;28;87787;-67
2022/10/15 09:04:40;;;;;;;10.18;7.25;;;;;;;;;;5021605;28;89714;-67
2022/10/15 09:07:18;;;;;;;7.77;6.97;;;;;;;;;;5039984;28;87426;-67
2022/10/15 09:09:50;;;;;;;8.10;6.95;;;;;;;;;;5021707;28;87529;-67
2022/10/15 09:12:35;;;;;;;9.02;7.07;;;;;;;;;;5042841;28;87805;-67
2022/10/15 09:15:03;;;;;;;8.90;6.57;;;;;;;;;;5043323;27;86779;-67
2022/10/15 09:17:31;;;;;;;9.23;6.15;;;;;;;;;;5022523;28;88360;-67
2022/10/15 09:20:01;;;;;;;7.95;6.55;;;;;;;;;;5039717;28;87272;-67
2022/10/15 09:22:29;;;;;;;6.97;6.03;;;;;;;;;;5039670;28;87415;-67
2022/10/15 09:24:55;;;;;;;6.95;6.07;;;;;;;;;;5039447;28;87795;-67
2022/10/15 09:27:32;;;;;;;7.38;6.15;;;;;;;;;;5021777;28;87203;-67
2022/10/15 09:30:04;;;;;;;8.25;6.25;;;;;;;;;;5039340;28;87537;-67
2022/10/15 09:32:49;;;;;;;7.57;6.43;;;;;;;;;;5039457;28;88037;-66
2022/10/15 09:35:23;;;;;;;7.07;6.20;;;;;;;;;;5042456;28;87698;-68
2022/10/15 09:38:12;;;;;;;11.50;5.50;;;;;;;;;;5039572;28;87895;-67
2022/10/15 09:40:54;;;;;;;6.18;5.60;;;;;;;;;;5021695;28;87977;-67
2022/10/15 09:43:26;;;;;;;6.57;5.90;;;;;;;;;;5039796;28;88641;-67
2022/10/15 09:45:52;;;;;;;11.05;6.30;;;;;;;;;;5039473;27;87953;-67
2022/10/15 09:48:19;;;;;;;8.10;6.03;;;;;;;;;;5039900;28;91014;-67
2022/10/15 09:50:53;;;;;;;6.35;5.57;;;;;;;;;;5021314;28;86803;-67
2022/10/15 09:53:31;;;;;;;6.20;5.60;;;;;;;;;;5039722;28;89290;-67
2022/10/15 09:56:11;;;;;;;6.40;5.80;;;;;;;;;;5039181;28;87383;-67
2022/10/15 09:58:42;;;;;;;6.38;5.78;;;;;;;;;;5024309;28;87847;-67
2022/10/15 10:01:16;;;;;;;6.53;5.85;;;;;;;;;;5021130;28;87296;-67
2022/10/15 10:03:42;;;;;;;5.82;5.22;;;;;;;;;;5039091;28;87521;-67
2022/10/15 10:06:12;;;;;;;7.18;6.03;;;;;;;;;;5038743;28;88169;-67
2022/10/15 10:08:40;;;;;;;6.40;5.53;;;;;;;;;;5038713;28;87297;-67
2022/10/15 10:11:08;;;;;;;7.95;5.50;;;;;;;;;;5038802;28;87671;-67
2022/10/15 10:13:47;;;;;;;5.85;5.35;;;;;;;;;;5038754;28;86807;-66
2022/10/15 10:16:14;;;;;;;5.72;5.15;;;;;;;;;;5042433;27;87565;-67
2022/10/15 10:18:49;;;;;;;6.45;5.80;;;;;;;;;;5038926;28;86869;-67
2022/10/15 10:21:21;;;;;;;5.35;4.85;;;;;;;;;;5041639;28;88193;-67
2022/10/15 10:23:47;;;;;;;7.32;5.57;;;;;;;;;;5038868;28;87591;-67
2022/10/15 10:26:13;;;;;;;5.50;4.97;;;;;;;;;;5038901;28;87890;-67
2022/10/15 10:28:45;;;;;;;6.70;5.20;;;;;;;;;;5020753;28;87161;-67
2022/10/15 10:31:11;;;;;;;5.43;4.93;;;;;;;;;;5038800;28;86782;-67
2022/10/15 10:33:40;;;;;;;5.45;4.95;;;;;;;;;;5038544;28;87864;-67
2022/10/15 10:36:17;;;;;;;6.75;5.00;;;;;;;;;;5038942;28;87318;-66
2022/10/15 10:38:53;;;;;;;5.40;4.90;;;;;;;;;;5038582;28;87575;-67
2022/10/15 10:41:19;;;;;;;4.85;4.45;;;;;;;;;;5038142;28;87851;-67
2022/10/15 10:43:52;;;;;;;5.40;4.88;;;;;;;;;;5041152;28;87398;-67
2022/10/15 10:46:21;;;;;;;6.07;4.80;;;;;;;;;;5038927;27;87904;-66
2022/10/15 10:48:52;;;;;;;5.75;4.82;;;;;;;;;;5021176;28;89164;-67
2022/10/15 10:51:19;;;;;;;5.00;4.40;;;;;;;;;;5037542;28;89013;-67
2022/10/15 10:53:48;;;;;;;4.97;4.40;;;;;;;;;;5037765;28;88190;-67
2022/10/15 10:56:27;;;;;;;4.57;4.18;;;;;;;;;;5037578;28;88234;-67
2022/10/15 10:59:02;;;;;;;5.78;4.30;;;;;;;;;;5019496;28;89356;-66
2022/10/15 11:01:28;;;;;;;5.72;4.18;;;;;;;;;;5036763;28;88791;-67
2022/10/15 11:03:55;;;;;;;4.45;4.05;;;;;;;;;;5022711;28;88321;-67
2022/10/15 11:06:26;;;;;;;4.97;3.90;;;;;;;;;;5036923;28;88137;-67
2022/10/15 11:08:56;;;;;;;4.40;4.00;;;;;;;;;;5037223;28;88843;-67
2022/10/15 11:11:30;;;;;;;4.63;4.10;;;;;;;;;;5037304;28;88989;-67
2022/10/15 11:14:02;;;;;;;4.35;3.95;;;;;;;;;;5046548;27;89658;-68
2022/10/15 11:16:36;;;;;;;8.57;3.60;;;;;;;;;;5047935;27;88434;-66
2022/10/15 11:19:21;;;;;;;11.00;4.13;;;;;;;;;;5037501;28;87644;-67
2022/10/15 11:22:23;;;;;;;4.70;3.63;;;;;;;;;;5037378;28;88000;-67
2022/10/15 11:25:06;;;;;;;4.57;3.67;;;;;;;;;;5046719;27;88029;-67
2022/10/15 11:27:32;;;;;;;7.97;3.28;;;;;;;;;;5044848;27;88764;-66
2022/10/15 11:30:02;;;;;;;3.30;3.00;;;;;;;;;;5043287;27;88473;-67
2022/10/15 11:32:31;;;;;;;3.30;3.00;;;;;;;;;;5048051;27;89002;-67
2022/10/15 11:35:18;;;;;;;3.45;3.15;;;;;;;;;;5045954;27;87998;-67
2022/10/15 11:38:07;;;;;;;5.75;2.90;;;;;;;;;;5045930;27;88843;-67
2022/10/15 11:40:51;;;;;;;3.78;3.30;;;;;;;;;;5049646;27;89287;-67
2022/10/15 11:43:21;;;;;;;3.72;3.22;;;;;;;;;;5039567;27;88160;-66
2022/10/15 11:45:54;;;;;;;3.17;2.92;;;;;;;;;;5052076;27;89171;-67
2022/10/15 11:48:38;;;;;;;3.67;2.85;;;;;;;;;;5039404;27;89019;-67
2022/10/15 11:51:14;;;;;;;4.05;3.00;;;;;;;;;;5063944;27;88009;-67
2022/10/15 11:53:50;;;;;;;3.67;3.03;;;;;;;;;;5030049;28;89659;-67
2022/10/15 11:56:39;;;;;;;4.28;2.88;;;;;;;;;;5054823;27;90070;-67
2022/10/15 11:59:09;;;;;;;5.28;2.63;;;;;;;;;;5029349;28;88757;-67
2022/10/15 12:01:37;;;;;;;3.88;2.63;;;;;;;;;;5022279;28;88974;-67
2022/10/15 12:04:29;;;;;;;4.00;3.00;;;;;;;;;;5042030;27;87999;-67
2022/10/15 12:07:00;;;;;;;4.55;3.10;;;;;;;;;;5037327;28;88985;-67
2022/10/15 12:09:32;;;;;;;3.40;2.95;;;;;;;;;;5039292;28;89338;-66
2022/10/15 12:12:15;;;;;;;3.15;2.90;;;;;;;;;;5041901;27;87841;-66
2022/10/15 12:14:55;;;;;;;2.97;2.75;;;;;;;;;;5055261;27;88400;-69
2022/10/15 12:17:24;;;;;;;4.85;2.60;;;;;;;;;;5050220;27;88416;-65
2022/10/15 12:19:55;;;;;;;3.28;3.00;;;;;;;;;;5047761;27;88782;-64
2022/10/15 12:22:32;;;;;;;3.38;2.90;;;;;;;;;;5039298;27;89106;-65
2022/10/15 12:25:00;;;;;;;3.22;2.90;;;;;;;;;;5048917;27;88115;-65
2022/10/15 12:27:33;;;;;;;5.68;2.53;;;;;;;;;;5059730;27;88753;-65
2022/10/15 12:30:02;;;;;;;2.90;2.58;;;;;;;;;;5038997;27;89439;-65
2022/10/15 12:32:45;;;;;;;2.88;2.60;;;;;;;;;;5039302;27;88101;-65
2022/10/15 12:35:14;;;;;;;5.90;2.72;;;;;;;;;;5032671;27;88770;-65
2022/10/15 12:37:42;;;;;;;2.63;2.40;;;;;;;;;;5063494;27;89310;-65
2022/10/15 12:40:29;;;;;;;4.60;2.40;;;;;;;;;;5058144;27;88590;-65
2022/10/15 12:43:00;;;;;;;4.13;2.55;;;;;;;;;;5034141;28;89034;-65
2022/10/15 12:45:33;;;;;;;2.45;2.25;;;;;;;;;;5044947;27;89189;-65
2022/10/15 12:48:05;;;;;;;4.20;2.70;;;;;;;;;;5042838;27;89390;-65
2022/10/15 12:50:33;;;;;;;4.95;2.47;;;;;;;;;;5044384;27;89101;-65
2022/10/15 12:53:00;;;;;;;2.30;2.10;;;;;;;;;;5048060;27;88128;-65
2022/10/15 12:55:27;;;;;;;4.50;2.13;;;;;;;;;;5038840;27;88716;-65
2022/10/15 12:57:55;;;;;;;2.05;1.83;;;;;;;;;;5039791;28;88933;-65
2022/10/15 13:00:24;;;;;;;2.95;2.03;;;;;;;;;;5042149;28;88027;-65
2022/10/15 13:02:58;;;;;;;2.10;1.90;;;;;;;;;;5040036;27;88302;-65
2022/10/15 13:05:26;;;;;;;2.08;1.92;;;;;;;;;;5038792;27;87990;-65
2022/10/15 13:07:52;;;;;;;2.20;2.00;;;;;;;;;;5042465;27;88073;-65
2022/10/15 13:10:37;;;;;;;2.10;2.00;;;;;;;;;;5052839;27;89737;-65
2022/10/15 13:13:05;;;;;;;1.88;1.77;;;;;;;;;;5049732;27;87886;-65
2022/10/15 13:15:33;;;;;;;3.92;1.88;;;;;;;;;;5055377;27;88727;-65
2022/10/15 13:18:05;;;;;;;3.65;2.05;;;;;;;;;;5048108;27;89722;-65
2022/10/15 13:20:33;;;;;;;2.20;2.00;;;;;;;;;;5031929;28;88034;-65
2022/10/15 13:23:20;;;;;;;2.20;1.90;;;;;;;;;;5057382;27;90382;-65
2022/10/15 13:26:22;;;;;;;2.05;1.95;;;;;;;;;;5057366;27;88030;-66
2022/10/15 13:28:48;;;;;;;2.05;1.90;;;;;;;;;;5039073;27;89037;-65
2022/10/15 13:31:24;;;;;;;3.05;1.65;;;;;;;;;;5055242;27;90086;-64
2022/10/15 13:34:09;;;;;;;2.28;2.10;;;;;;;;;;5050025;27;89673;-65
2022/10/15 13:36:35;;;;;;;;;;;;;;;;;;5049607;27;89088;-64
2022/10/15 13:39:06;;;;;;;2.15;1.95;;;;;;;;;;5058566;27;119713;-65
2022/10/15 13:41:34;;;;;;;2.05;1.90;;;;;;;;;;5016925;28;89666;-65
2022/10/15 13:44:01;;;;;;;3.45;2.10;;;;;;;;;;5001475;28;89785;-65
2022/10/15 13:46:46;;;;;;;2.78;1.85;;;;;;;;;;4998809;28;88159;-65
2022/10/15 13:49:12;;;;;;;1.85;1.75;;;;;;;;;;5008351;28;88749;-65
2022/10/15 13:51:43;;;;;;;2.40;1.75;;;;;;;;;;5007879;28;90191;-65
2022/10/15 13:54:10;;;;;;;2.00;1.90;;;;;;;;;;5000544;28;87630;-65
2022/10/15 13:56:41;;;;;;;1.90;1.80;;;;;;;;;;5015594;28;89384;-65
2022/10/15 13:59:15;;;;;;;2.22;1.80;;;;;;;;;;5014883;28;89197;-66
2022/10/15 14:01:46;;;;;;;2.53;1.90;;;;;;;;;;5014088;28;89027;-65
2022/10/15 14:04:14;;;;;;;2.10;1.90;;;;;;;;;;5018029;28;88744;-65
2022/10/15 14:06:42;;;;;;;1.80;1.70;;;;;;;;;;5011100;28;89056;-65
2022/10/15 14:09:23;;;;;;;2.25;1.85;;;;;;;;;;5000187;28;89021;-65
2022/10/15 14:11:50;;;;;;;1.70;1.60;;;;;;;;;;4997702;28;89203;-65
2022/10/15 14:14:27;;;;;;;3.10;1.70;;;;;;;;;;4996084;28;88324;-65
2022/10/15 14:16:54;;;;;;;1.92;1.83;;;;;;;;;;5006581;28;88691;-66
2022/10/15 14:19:25;;;;;;;1.80;1.70;;;;;;;;;;5008219;28;89125;-67
2022/10/15 14:21:52;;;;;;;1.70;1.60;;;;;;;;;;5018130;28;90437;-67
2022/10/15 14:24:19;;;;;;;2.05;1.88;;;;;;;;;;5009387;28;89321;-66
2022/10/15 14:26:46;;;;;;;2.53;1.85;;;;;;;;;;5004609;28;88770;-69
2022/10/15 14:29:19;;;;;;;1.60;1.50;;;;;;;;;;5006286;28;89476;-69
2022/10/15 14:31:46;;;;;;;1.70;1.60;;;;;;;;;;5017580;28;89356;-69
2022/10/15 14:34:30;;;;;;;3.40;1.83;;;;;;;;;;5018166;28;88029;-69
2022/10/15 14:36:56;;;;;;;6.47;2.00;;;;;;;;;;5015104;28;89035;-68
2022/10/15 14:39:25;;;;;;;6.38;1.60;;;;;;;;;;5017304;27;89154;-69
2022/10/15 14:41:55;;;;;;;1.90;1.80;;;;;;;;;;5057694;27;88016;-69
2022/10/15 14:44:21;;;;;;;2.25;2.00;;;;;;;;;;5027426;27;89003;-69
2022/10/15 14:46:50;;;;;;;1.98;1.73;;;;;;;;;;5044646;27;89074;-69
2022/10/15 14:49:25;;;;;;;4.72;1.92;;;;;;;;;;5037678;27;89463;-69
2022/10/15 14:51:52;;;;;;;2.08;1.88;;;;;;;;;;5041957;27;88741;-68
2022/10/15 14:54:20;;;;;;;3.30;1.92;;;;;;;;;;5039448;27;88436;-69
2022/10/15 14:56:47;;;;;;;2.03;1.90;;;;;;;;;;5048185;27;89002;-69
2022/10/15 14:59:16;;;;;;;1.95;1.85;;;;;;;;;;5037245;27;88993;-69
2022/10/15 15:01:52;;;;;;;1.67;1.58;;;;;;;;;;5040599;27;88046;-69
2022/10/15 15:04:33;;;;;;;2.00;1.80;;;;;;;;;;5044286;27;88779;-69
2022/10/15 15:06:59;;;;;;;2.10;1.98;;;;;;;;;;5048205;27;89016;-69
2022/10/15 15:09:25;;;;;;;2.25;1.65;;;;;;;;;;5038152;27;87922;-69
2022/10/15 15:11:51;;;;;;;2.28;1.60;;;;;;;;;;5060901;27;88110;-69
2022/10/15 15:14:26;;;;;;;1.98;1.65;;;;;;;;;;5049326;27;89281;-68
2022/10/15 15:16:53;;;;;;;2.20;1.90;;;;;;;;;;5045932;27;88899;-69
2022/10/15 15:19:19;;;;;;;1.98;1.63;;;;;;;;;;5041079;27;89067;-69
2022/10/15 15:21:45;;;;;;;1.85;1.60;;;;;;;;;;5060500;27;88041;-69
2022/10/15 15:24:11;;;;;;;1.70;1.60;;;;;;;;;;5061196;27;87981;-69
2022/10/15 15:26:38;;;;;;;2.90;1.40;;;;;;;;;;5043454;27;88953;-68
2022/10/15 15:29:10;;;;;;;1.80;1.70;;;;;;;;;;5040640;27;88543;-69
2022/10/15 15:31:39;;;;;;;1.95;1.67;;;;;;;;;;5059577;27;89040;-69
2022/10/15 15:34:05;;;;;;;4.85;2.28;;;;;;;;;;5053753;27;89179;-69
2022/10/15 15:36:31;;;;;;;3.00;1.60;;;;;;;;;;5057589;27;87963;-69
2022/10/15 15:38:58;;;;;;;2.58;1.80;;;;;;;;;;5060700;27;89107;-68
2022/10/15 15:41:24;;;;;;;2.35;1.50;;;;;;;;;;5058316;27;89084;-69
2022/10/15 15:43:51;;;;;;;3.13;1.50;;;;;;;;;;5024096;28;89845;-68
2022/10/15 15:46:17;;;;;;;2.78;1.92;;;;;;;;;;5031887;27;90348;-69
2022/10/15 15:48:43;;;;;;;3.40;1.83;;;;;;;;;;5047963;27;88028;-68
2022/10/15 15:51:20;;;;;;;3.50;2.08;;;;;;;;;;5060436;27;88813;-69
2022/10/15 15:53:47;;;;;;;3.67;1.95;;;;;;;;;;5023072;28;89294;-69
2022/10/15 15:56:13;;;;;;;2.53;1.65;;;;;;;;;;5043006;27;88013;-69
2022/10/15 15:58:39;;;;;;;2.92;1.88;;;;;;;;;;5025275;28;89456;-69
2022/10/15 16:01:06;;;;;;;4.35;2.75;;;;;;;;;;5039782;28;87966;-69
2022/10/15 16:03:32;;;;;;;5.07;2.60;;;;;;;;;;5039905;27;88790;-69
2022/10/15 16:05:58;;;;;;;3.75;2.97;;;;;;;;;;5042585;27;89699;-69
2022/10/15 16:08:24;;;;;;;5.90;2.78;;;;;;;;;;5050405;27;88048;-69
2022/10/15 16:10:50;;;;;;;6.78;3.17;;;;;;;;;;5025478;28;90581;-69
2022/10/15 16:13:17;;;;;;;5.13;2.97;;;;;;;;;;5038939;27;88983;-69
2022/10/15 16:15:43;;;;;;;5.82;3.40;;;;;;;;;;5043375;27;88214;-69
2022/10/15 16:18:10;;;;;;;5.75;3.40;;;;;;;;;;5025126;27;90057;-68
2022/10/15 16:20:38;;;;;;;4.82;3.25;;;;;;;;;;5021725;28;88045;-69
2022/10/15 16:23:07;;;;;;;6.80;3.47;;;;;;;;;;5042809;27;88828;-68
2022/10/15 16:25:33;;;;;;;8.20;3.45;;;;;;;;;;5041804;27;89053;-69
2022/10/15 16:28:00;;;;;;;6.70;3.30;;;;;;;;;;5057575;27;88108;-69
2022/10/15 16:30:27;;;;;;;3.70;3.13;;;;;;;;;;5037917;27;89578;-69
2022/10/15 16:32:53;;;;;;;4.35;2.92;;;;;;;;;;5048152;27;90872;-69
2022/10/15 16:35:19;;;;;;;6.60;3.15;;;;;;;;;;5048483;27;88148;-70
2022/10/15 16:37:46;;;;;;;9.60;2.92;;;;;;;;;;5039310;27;89843;-69
2022/10/15 16:40:13;;;;;;;12.07;3.47;;;;;;;;;;5024222;28;89000;-69
2022/10/15 16:42:40;;;;;;;5.80;2.90;;;;;;;;;;5021389;28;88803;-69
2022/10/15 16:45:06;;;;;;;3.60;2.75;;;;;;;;;;5022782;27;90107;-69
2022/10/15 16:47:32;;;;;;;4.55;2.20;;;;;;;;;;5038181;27;87894;-69
2022/10/15 16:49:59;;;;;;;5.38;2.42;;;;;;;;;;5026464;27;88103;-69
2022/10/15 16:52:25;;;;;;;6.30;2.53;;;;;;;;;;5059253;27;89057;-69
2022/10/15 16:54:52;;;;;;;5.35;2.63;;;;;;;;;;5058582;27;88802;-69
2022/10/15 16:57:18;;;;;;;5.35;2.95;;;;;;;;;;5059434;27;89438;-69
2022/10/15 16:59:44;;;;;;;6.75;3.33;;;;;;;;;;5054178;27;89027;-68
2022/10/15 17:02:10;;;;;;;5.97;3.05;;;;;;;;;;5062036;27;87997;-69
2022/10/15 17:04:37;;;;;;;6.57;3.40;;;;;;;;;;5031171;28;88858;-69
2022/10/15 17:07:03;;;;;;;5.18;3.20;;;;;;;;;;5042147;27;88491;-68
2022/10/15 17:09:30;;;;;;;6.97;3.20;;;;;;;;;;5056207;27;88782;-68
2022/10/15 17:11:56;;;;;;;6.47;3.75;;;;;;;;;;5060188;27;88514;-68
2022/10/15 17:14:22;;;;;;;3.13;2.83;;;;;;;;;;5046913;27;88177;-69
2022/10/15 17:16:50;;;;;;;5.50;3.17;;;;;;;;;;5042193;27;88878;-69
2022/10/15 17:19:18;;;;;;;10.02;3.17;;;;;;;;;;5037363;27;89809;-69
2022/10/15 17:21:44;;;;;;;5.78;3.08;;;;;;;;;;5027456;27;88113;-69
2022/10/15 17:24:13;;;;;;;7.53;3.30;;;;;;;;;;5051306;27;88925;-69
2022/10/15 17:26:40;;;;;;;7.97;3.58;;;;;;;;;;5020738;28;87943;-69
2022/10/15 17:29:11;;;;;;;5.18;3.42;;;;;;;;;;5042791;27;89958;-69
2022/10/15 17:31:37;;;;;;;9.60;2.78;;;;;;;;;;5020512;28;89066;-64
2022/10/15 17:34:05;;;;;;;11.95;2.53;;;;;;;;;;5058909;27;90707;-65
2022/10/15 17:36:35;;;;;;;8.98;3.15;;;;;;;;;;5043234;27;89804;-66
2022/10/15 17:39:01;;;;;;;7.63;2.50;;;;;;;;;;5050841;27;88995;-66
2022/10/15 17:41:28;;;;;;;5.03;2.20;;;;;;;;;;5037976;28;88173;-67
2022/10/15 17:43:55;;;;;;;4.97;2.42;;;;;;;;;;5040152;27;88907;-67
2022/10/15 17:46:22;;;;;;;3.10;1.83;;;;;;;;;;5050283;27;88016;-67
2022/10/15 17:48:49;;;;;;;5.68;2.17;;;;;;;;;;5044663;27;88875;-66
2022/10/15 17:51:16;;;;;;;22.95;3.15;;;;;;;;;;5038157;28;89000;-66
2022/10/15 17:53:43;;;;;;;12.93;2.25;;;;;;;;;;5037668;27;87984;-65
2022/10/15 17:56:14;;;;;;;13.35;2.42;;;;;;;;;;5038143;28;88747;-66
2022/10/15 17:58:41;;;;;;;6.82;2.25;;;;;;;;;;5038393;27;88086;-66
2022/10/15 18:01:11;;;;;;;5.78;2.35;;;;;;;;;;5039724;27;87953;-66
2022/10/15 18:03:37;;;;;;;10.50;2.85;;;;;;;;;;5058319;27;87955;-66
2022/10/15 18:06:11;;;;;;;10.40;2.33;;;;;;;;;;5053152;27;89034;-65
2022/10/15 18:08:37;;;;;;;7.63;3.05;;;;;;;;;;5026724;27;89599;-66
2022/10/15 18:11:04;;;;;;;7.22;2.65;;;;;;;;;;5058443;27;89112;-67
2022/10/15 18:13:30;;;;;;;14.07;2.92;;;;;;;;;;5033027;28;88097;-66
2022/10/15 18:15:56;;;;;;;12.65;2.67;;;;;;;;;;5036988;27;89942;-66
2022/10/15 18:18:23;;;;;;;12.43;2.55;;;;;;;;;;5047003;27;88924;-68
2022/10/15 18:20:49;;;;;;;9.38;2.53;;;;;;;;;;5037767;28;88018;-67
2022/10/15 18:23:15;;;;;;;11.20;3.03;;;;;;;;;;5037798;28;88750;-68
2022/10/15 18:25:42;;;;;;;9.63;2.58;;;;;;;;;;5038303;28;88274;-68
2022/10/15 18:28:08;;;;;;;5.60;2.50;;;;;;;;;;5034135;27;89688;-68
2022/10/15 18:30:35;;;;;;;9.88;2.72;;;;;;;;;;5068276;27;89169;-67
2022/10/15 18:33:01;;;;;;;4.72;2.47;;;;;;;;;;5078420;27;88738;-67
2022/10/15 18:35:27;;;;;;;14.20;3.15;;;;;;;;;;5058459;27;89605;-67
2022/10/15 18:37:54;;;;;;;9.50;2.50;;;;;;;;;;5057799;27;89015;-68
2022/10/15 18:40:20;;;;;;;8.32;3.10;;;;;;;;;;5057513;27;88127;-67
2022/10/15 18:42:46;;;;;;;13.73;2.85;;;;;;;;;;5048279;27;88726;-67
2022/10/15 18:45:13;;;;;;;7.60;2.33;;;;;;;;;;5053312;27;88842;-67
2022/10/15 18:47:39;;;;;;;5.40;2.40;;;;;;;;;;5057352;27;89407;-68
2022/10/15 18:50:06;;;;;;;10.93;3.13;;;;;;;;;;5044714;27;88815;-68
2022/10/15 18:52:32;;;;;;;8.73;2.67;;;;;;;;;;5043199;27;88075;-68
2022/10/15 18:55:05;;;;;;;9.15;2.78;;;;;;;;;;5037002;28;88835;-68
2022/10/15 18:57:33;;;;;;;7.03;2.58;;;;;;;;;;5036145;27;88743;-68
2022/10/15 18:59:59;;;;;;;6.68;2.33;;;;;;;;;;5047986;27;88181;-68
2022/10/15 19:02:26;;;;;;;6.25;2.60;;;;;;;;;;5062447;27;89104;-67
2022/10/15 19:04:52;;;;;;;8.75;2.60;;;;;;;;;;5040622;27;89082;-67
2022/10/15 19:07:19;;;;;;;5.20;2.20;;;;;;;;;;5048749;27;88151;-67
2022/10/15 19:09:45;;;;;;;5.25;2.00;;;;;;;;;;5039293;27;88050;-68
2022/10/15 19:12:11;;;;;;;6.75;2.50;;;;;;;;;;5040072;28;89351;-67
2022/10/15 19:14:37;;;;;;;6.30;2.20;;;;;;;;;;5038373;27;88768;-67
2022/10/15 19:17:04;;;;;;;10.63;2.28;;;;;;;;;;5039280;27;89270;-68
2022/10/15 19:19:30;;;;;;;5.78;2.40;;;;;;;;;;5038124;27;88218;-68
2022/10/15 19:21:56;;;;;;;5.68;2.28;;;;;;;;;;5038491;27;89073;-67
2022/10/15 19:24:23;;;;;;;4.75;2.33;;;;;;;;;;5055202;27;89572;-67
2022/10/15 19:26:49;;;;;;;6.07;2.30;;;;;;;;;;5052352;27;88090;-65
2022/10/15 19:29:16;;;;;;;6.28;2.50;;;;;;;;;;5056917;27;89133;-65
2022/10/15 19:31:43;;;;;;;8.35;2.53;;;;;;;;;;5057228;27;89337;-66
2022/10/15 19:34:10;;;;;;;5.00;1.85;;;;;;;;;;5052535;27;87990;-66
2022/10/15 19:36:38;;;;;;;13.68;3.50;;;;;;;;;;5035213;27;89312;-66
2022/10/15 19:39:11;;;;;;;5.60;2.70;;;;;;;;;;5040061;27;87883;-65
2022/10/15 19:41:38;;;;;;;11.98;2.92;;;;;;;;;;5037702;27;88133;-65
2022/10/15 19:44:06;;;;;;;7.90;2.35;;;;;;;;;;5020681;27;90450;-66
2022/10/15 19:46:34;;;;;;;15.45;2.90;;;;;;;;;;5038667;27;89083;-65
2022/10/15 19:49:00;;;;;;;9.23;2.90;;;;;;;;;;5048172;27;89752;-65
2022/10/15 19:51:26;;;;;;;8.77;2.20;;;;;;;;;;5027585;28;89243;-65
2022/10/15 19:53:55;;;;;;;10.20;2.88;;;;;;;;;;5025819;28;88533;-67
2022/10/15 19:56:21;;;;;;;5.50;2.22;;;;;;;;;;5052550;27;88959;-64
2022/10/15 19:58:52;;;;;;;10.05;2.30;;;;;;;;;;5040632;27;88232;-64
2022/10/15 20:01:18;;;;;;;12.45;2.47;;;;;;;;;;5028740;27;89599;-64
2022/10/15 20:03:45;;;;;;;24.95;3.03;;;;;;;;;;5047762;27;88470;-64
2022/10/15 20:06:11;;;;;;;9.00;2.38;;;;;;;;;;5040030;28;91390;-65
2022/10/15 20:08:37;;;;;;;12.68;2.75;;;;;;;;;;5052787;27;88801;-64
2022/10/15 20:11:05;;;;;;;17.92;2.53;;;;;;;;;;5041381;27;91182;-67
2022/10/15 20:13:31;;;;;;;16.75;2.72;;;;;;;;;;5027036;27;89948;-65
2022/10/15 20:16:00;;;;;;;10.18;2.20;;;;;;;;;;5044879;27;88763;-64
2022/10/15 20:18:27;;;;;;;18.80;2.33;;;;;;;;;;5022686;27;88777;-65
2022/10/15 20:20:53;;;;;;;10.80;1.95;;;;;;;;;;5026062;27;89953;-64
2022/10/15 20:23:19;;;;;;;12.50;2.63;;;;;;;;;;5033288;27;89012;-64
2022/10/15 20:25:46;;;;;;;19.80;2.35;;;;;;;;;;5041922;27;88143;-64
2022/10/15 20:28:13;;;;;;;8.35;2.63;;;;;;;;;;5022548;27;89685;-65
2022/10/15 20:30:39;;;;;;;8.48;2.70;;;;;;;;;;5040532;27;89455;-64
2022/10/15 20:33:06;;;;;;;9.55;2.78;;;;;;;;;;5039680;27;87951;-64
2022/10/15 20:35:36;;;;;;;8.52;2.22;;;;;;;;;;5043185;27;89202;-65
2022/10/15 20:38:02;;;;;;;5.00;2.47;;;;;;;;;;5074090;27;89029;-64
2022/10/15 20:40:29;;;;;;;8.73;2.67;;;;;;;;;;5050122;27;89449;-64
2022/10/15 20:42:55;;;;;;;14.13;2.35;;;;;;;;;;5051808;27;89010;-65
2022/10/15 20:45:22;;;;;;;8.65;2.78;;;;;;;;;;5042939;27;88443;-64
2022/10/15 20:47:51;;;;;;;7.55;2.50;;;;;;;;;;5050043;27;89060;-64
2022/10/15 20:50:23;;;;;;;6.95;2.50;;;;;;;;;;5041477;27;89046;-65
2022/10/15 20:52:50;;;;;;;7.25;2.08;;;;;;;;;;5049724;27;87756;-64
2022/10/15 20:55:16;;;;;;;4.63;2.00;;;;;;;;;;5037825;27;88167;-65
2022/10/15 20:57:42;;;;;;;6.18;2.03;;;;;;;;;;5038791;28;89038;-64
2022/10/15 21:00:09;;;;;;;5.20;2.78;;;;;;;;;;5056203;27;89219;-65
2022/10/15 21:02:35;;;;;;;9.55;2.95;;;;;;;;;;5055740;27;90005;-65
2022/10/15 21:05:02;;;;;;;8.10;2.35;;;;;;;;;;5039943;27;88206;-64
2022/10/15 21:07:28;;;;;;;6.75;1.92;;;;;;;;;;5038812;28;88747;-64
2022/10/15 21:09:54;;;;;;;11.48;2.42;;;;;;;;;;5051556;27;89052;-64
2022/10/15 21:12:21;;;;;;;6.68;2.28;;;;;;;;;;5057548;27;88101;-65
2022/10/15 21:14:47;;;;;;;3.53;2.00;;;;;;;;;;5033962;27;89727;-65
2022/10/15 21:17:13;;;;;;;7.38;1.90;;;;;;;;;;5035311;27;90001;-65
2022/10/15 21:19:40;;;;;;;3.38;1.70;;;;;;;;;;5044849;27;88025;-66
2022/10/15 21:22:06;;;;;;;8.43;1.92;;;;;;;;;;5056690;27;93179;-65
2022/10/15 21:24:33;;;;;;;7.85;1.92;;;;;;;;;;5052775;27;88809;-66
2022/10/15 21:27:00;;;;;;;8.27;1.98;;;;;;;;;;5046360;27;89475;-65
2022/10/15 21:29:27;;;;;;;8.85;1.92;;;;;;;;;;5044941;27;90304;-65
2022/10/15 21:31:53;;;;;;;7.15;1.60;;;;;;;;;;5039126;27;89477;-66